sensor_id;sensor_type;location;lat;lon;timestamp;P1;durP1;ratioP1;P2;durP2;ratioP2
69401;SDS011;56589;51.992;5.924;2024-02-04T00:01:12;10.52;;;6.10;;
69401;SDS011;56589;51.992;5.924;2024-02-04T00:03:38;10.80;;;5.70;;
69401;SDS011;56589;51.992;5.924;2024-02-04T00:06:04;10.85;;;5.53;;
69401;SDS011;56589;51.992;5.924;2024-02-04T00:08:31;11.95;;;5.75;;
69401;SDS011;56589;51.992;5.924;2024-02-04T00:10:56;6.72;;;4.93;;
69401;SDS011;56589;51.992;5.924;2024-02-04T00:13:25;8.25;;;5.07;;
69401;SDS011;56589;51.992;5.924;2024-02-04T00:15:51;4.90;;;3.95;;
69401;SDS011;56589;51.992;5.924;2024-02-04T00:18:16;7.00;;;4.65;;
69401;SDS011;56589;51.992;5.924;2024-02-04T00:20:42;5.25;;;4.70;;
69401;SDS011;56589;51.992;5.924;2024-02-04T00:23:08;6.97;;;5.30;;
69401;SDS011;56589;51.992;5.924;2024-02-04T00:25:34;8.38;;;5.03;;
69401;SDS011;56589;51.992;5.924;2024-02-04T00:28:00;10.05;;;5.32;;
69401;SDS011;56589;51.992;5.924;2024-02-04T00:30:28;10.52;;;6.53;;
69401;SDS011;56589;51.992;5.924;2024-02-04T00:32:54;14.23;;;5.97;;
69401;SDS011;56589;51.992;5.924;2024-02-04T00:35:20;8.68;;;5.30;;
69401;SDS011;56589;51.992;5.924;2024-02-04T00:37:46;9.20;;;5.25;;
69401;SDS011;56589;51.992;5.924;2024-02-04T00:40:11;8.45;;;4.70;;
69401;SDS011;56589;51.992;5.924;2024-02-04T00:42:37;8.77;;;5.13;;
69401;SDS011;56589;51.992;5.924;2024-02-04T00:45:03;7.50;;;4.90;;
69401;SDS011;56589;51.992;5.924;2024-02-04T00:47:32;6.50;;;4.07;;
69401;SDS011;56589;51.992;5.924;2024-02-04T00:49:58;7.38;;;3.78;;
69401;SDS011;56589;51.992;5.924;2024-02-04T00:52:24;8.77;;;4.43;;
69401;SDS011;56589;51.992;5.924;2024-02-04T00:54:50;7.05;;;5.20;;
69401;SDS011;56589;51.992;5.924;2024-02-04T00:57:15;13.77;;;6.78;;
69401;SDS011;56589;51.992;5.924;2024-02-04T00:59:41;11.40;;;7.15;;
69401;SDS011;56589;51.992;5.924;2024-02-04T01:02:07;21.35;;;9.05;;
69401;SDS011;56589;51.992;5.924;2024-02-04T01:04:35;21.52;;;9.43;;
69401;SDS011;56589;51.992;5.924;2024-02-04T01:07:01;26.80;;;11.75;;
69401;SDS011;56589;51.992;5.924;2024-02-04T01:09:27;21.58;;;10.23;;
69401;SDS011;56589;51.992;5.924;2024-02-04T01:11:53;22.67;;;9.73;;
69401;SDS011;56589;51.992;5.924;2024-02-04T01:14:19;18.00;;;8.68;;
69401;SDS011;56589;51.992;5.924;2024-02-04T01:16:48;16.52;;;7.95;;
69401;SDS011;56589;51.992;5.924;2024-02-04T01:19:14;22.23;;;8.18;;
69401;SDS011;56589;51.992;5.924;2024-02-04T01:21:42;19.95;;;8.77;;
69401;SDS011;56589;51.992;5.924;2024-02-04T01:24:08;15.25;;;7.53;;
69401;SDS011;56589;51.992;5.924;2024-02-04T01:26:34;18.75;;;7.72;;
69401;SDS011;56589;51.992;5.924;2024-02-04T01:28:59;15.18;;;7.90;;
69401;SDS011;56589;51.992;5.924;2024-02-04T01:31:25;16.30;;;8.02;;
69401;SDS011;56589;51.992;5.924;2024-02-04T01:33:51;16.80;;;7.70;;
69401;SDS011;56589;51.992;5.924;2024-02-04T01:36:17;16.75;;;7.47;;
69401;SDS011;56589;51.992;5.924;2024-02-04T01:38:45;15.00;;;7.68;;
69401;SDS011;56589;51.992;5.924;2024-02-04T01:41:11;18.73;;;7.75;;
69401;SDS011;56589;51.992;5.924;2024-02-04T01:43:37;13.27;;;7.20;;
69401;SDS011;56589;51.992;5.924;2024-02-04T01:46:02;14.52;;;8.25;;
69401;SDS011;56589;51.992;5.924;2024-02-04T01:48:29;21.42;;;7.63;;
69401;SDS011;56589;51.992;5.924;2024-02-04T01:50:56;17.92;;;7.82;;
69401;SDS011;56589;51.992;5.924;2024-02-04T01:53:25;17.58;;;7.32;;
69401;SDS011;56589;51.992;5.924;2024-02-04T01:55:56;18.58;;;8.27;;
69401;SDS011;56589;51.992;5.924;2024-02-04T01:58:22;18.38;;;7.53;;
69401;SDS011;56589;51.992;5.924;2024-02-04T02:00:48;20.50;;;7.47;;
69401;SDS011;56589;51.992;5.924;2024-02-04T02:03:16;20.30;;;7.65;;
69401;SDS011;56589;51.992;5.924;2024-02-04T02:05:42;15.18;;;7.25;;
69401;SDS011;56589;51.992;5.924;2024-02-04T02:08:08;19.30;;;7.93;;
69401;SDS011;56589;51.992;5.924;2024-02-04T02:10:34;16.65;;;7.22;;
69401;SDS011;56589;51.992;5.924;2024-02-04T02:13:04;17.52;;;7.93;;
69401;SDS011;56589;51.992;5.924;2024-02-04T02:15:40;17.85;;;7.32;;
69401;SDS011;56589;51.992;5.924;2024-02-04T02:18:14;17.13;;;7.15;;
69401;SDS011;56589;51.992;5.924;2024-02-04T02:20:53;13.38;;;7.75;;
69401;SDS011;56589;51.992;5.924;2024-02-04T02:23:40;16.52;;;7.18;;
69401;SDS011;56589;51.992;5.924;2024-02-04T02:26:20;24.85;;;8.52;;
69401;SDS011;56589;51.992;5.924;2024-02-04T02:28:48;21.40;;;8.05;;
69401;SDS011;56589;51.992;5.924;2024-02-04T02:31:13;15.10;;;7.00;;
69401;SDS011;56589;51.992;5.924;2024-02-04T02:33:39;19.25;;;7.07;;
69401;SDS011;56589;51.992;5.924;2024-02-04T02:36:06;15.05;;;6.78;;
69401;SDS011;56589;51.992;5.924;2024-02-04T02:38:43;17.92;;;7.60;;
69401;SDS011;56589;51.992;5.924;2024-02-04T02:41:26;17.90;;;6.57;;
69401;SDS011;56589;51.992;5.924;2024-02-04T02:43:57;14.98;;;7.30;;
69401;SDS011;56589;51.992;5.924;2024-02-04T02:46:26;17.55;;;6.70;;
69401;SDS011;56589;51.992;5.924;2024-02-04T02:48:53;13.02;;;6.20;;
69401;SDS011;56589;51.992;5.924;2024-02-04T02:51:19;16.77;;;6.75;;
69401;SDS011;56589;51.992;5.924;2024-02-04T02:53:45;15.00;;;6.50;;
69401;SDS011;56589;51.992;5.924;2024-02-04T02:56:11;13.32;;;6.32;;
69401;SDS011;56589;51.992;5.924;2024-02-04T02:58:39;17.77;;;6.70;;
69401;SDS011;56589;51.992;5.924;2024-02-04T03:01:05;16.08;;;6.20;;
69401;SDS011;56589;51.992;5.924;2024-02-04T03:03:31;14.88;;;6.55;;
69401;SDS011;56589;51.992;5.924;2024-02-04T03:05:56;18.25;;;6.78;;
69401;SDS011;56589;51.992;5.924;2024-02-04T03:08:22;13.05;;;6.63;;
69401;SDS011;56589;51.992;5.924;2024-02-04T03:10:48;16.08;;;6.15;;
69401;SDS011;56589;51.992;5.924;2024-02-04T03:13:14;11.48;;;6.40;;
69401;SDS011;56589;51.992;5.924;2024-02-04T03:15:42;12.77;;;6.38;;
69401;SDS011;56589;51.992;5.924;2024-02-04T03:18:08;13.88;;;6.22;;
69401;SDS011;56589;51.992;5.924;2024-02-04T03:20:34;14.63;;;7.03;;
69401;SDS011;56589;51.992;5.924;2024-02-04T03:23:00;13.23;;;6.65;;
69401;SDS011;56589;51.992;5.924;2024-02-04T03:25:25;20.67;;;7.57;;
69401;SDS011;56589;51.992;5.924;2024-02-04T03:27:51;14.95;;;7.18;;
69401;SDS011;56589;51.992;5.924;2024-02-04T03:30:17;17.35;;;7.82;;
69401;SDS011;56589;51.992;5.924;2024-02-04T03:32:46;14.77;;;7.28;;
69401;SDS011;56589;51.992;5.924;2024-02-04T03:35:11;15.13;;;7.38;;
69401;SDS011;56589;51.992;5.924;2024-02-04T03:37:37;15.45;;;6.80;;
69401;SDS011;56589;51.992;5.924;2024-02-04T03:40:03;17.98;;;7.10;;
69401;SDS011;56589;51.992;5.924;2024-02-04T03:42:31;17.85;;;7.47;;
69401;SDS011;56589;51.992;5.924;2024-02-04T03:44:56;16.63;;;7.93;;
69401;SDS011;56589;51.992;5.924;2024-02-04T03:47:22;15.98;;;8.20;;
69401;SDS011;56589;51.992;5.924;2024-02-04T03:49:50;18.60;;;8.65;;
69401;SDS011;56589;51.992;5.924;2024-02-04T03:52:16;18.52;;;8.90;;
69401;SDS011;56589;51.992;5.924;2024-02-04T03:54:42;18.63;;;7.72;;
69401;SDS011;56589;51.992;5.924;2024-02-04T03:57:08;16.15;;;8.20;;
69401;SDS011;56589;51.992;5.924;2024-02-04T03:59:33;12.52;;;7.30;;
69401;SDS011;56589;51.992;5.924;2024-02-04T04:01:59;16.50;;;7.18;;
69401;SDS011;56589;51.992;5.924;2024-02-04T04:04:25;11.38;;;5.50;;
69401;SDS011;56589;51.992;5.924;2024-02-04T04:06:53;13.85;;;5.50;;
69401;SDS011;56589;51.992;5.924;2024-02-04T04:09:19;15.27;;;5.88;;
69401;SDS011;56589;51.992;5.924;2024-02-04T04:11:45;13.95;;;5.82;;
69401;SDS011;56589;51.992;5.924;2024-02-04T04:14:10;12.75;;;6.25;;
69401;SDS011;56589;51.992;5.924;2024-02-04T04:16:36;17.77;;;6.25;;
69401;SDS011;56589;51.992;5.924;2024-02-04T04:19:02;12.70;;;5.70;;
69401;SDS011;56589;51.992;5.924;2024-02-04T04:21:28;11.25;;;6.72;;
69401;SDS011;56589;51.992;5.924;2024-02-04T04:23:56;11.73;;;6.20;;
69401;SDS011;56589;51.992;5.924;2024-02-04T04:26:22;13.30;;;6.03;;
69401;SDS011;56589;51.992;5.924;2024-02-04T04:28:48;14.38;;;5.85;;
69401;SDS011;56589;51.992;5.924;2024-02-04T04:31:13;12.18;;;5.78;;
69401;SDS011;56589;51.992;5.924;2024-02-04T04:33:40;10.73;;;5.57;;
69401;SDS011;56589;51.992;5.924;2024-02-04T04:36:06;13.82;;;6.20;;
69401;SDS011;56589;51.992;5.924;2024-02-04T04:38:32;10.55;;;6.10;;
69401;SDS011;56589;51.992;5.924;2024-02-04T04:41:00;19.23;;;6.60;;
69401;SDS011;56589;51.992;5.924;2024-02-04T04:43:26;15.50;;;6.38;;
69401;SDS011;56589;51.992;5.924;2024-02-04T04:45:52;13.77;;;6.50;;
69401;SDS011;56589;51.992;5.924;2024-02-04T04:48:17;11.95;;;6.10;;
69401;SDS011;56589;51.992;5.924;2024-02-04T04:50:43;13.57;;;6.28;;
69401;SDS011;56589;51.992;5.924;2024-02-04T04:53:09;19.65;;;8.23;;
69401;SDS011;56589;51.992;5.924;2024-02-04T04:55:35;13.13;;;6.22;;
69401;SDS011;56589;51.992;5.924;2024-02-04T04:58:03;18.83;;;8.25;;
69401;SDS011;56589;51.992;5.924;2024-02-04T05:00:29;13.30;;;5.93;;
69401;SDS011;56589;51.992;5.924;2024-02-04T05:02:55;13.70;;;5.82;;
69401;SDS011;56589;51.992;5.924;2024-02-04T05:05:20;13.40;;;7.20;;
69401;SDS011;56589;51.992;5.924;2024-02-04T05:07:46;16.02;;;6.20;;
69401;SDS011;56589;51.992;5.924;2024-02-04T05:10:12;16.38;;;6.20;;
69401;SDS011;56589;51.992;5.924;2024-02-04T05:12:38;13.07;;;6.05;;
69401;SDS011;56589;51.992;5.924;2024-02-04T05:15:07;16.05;;;6.45;;
69401;SDS011;56589;51.992;5.924;2024-02-04T05:17:34;18.52;;;6.40;;
69401;SDS011;56589;51.992;5.924;2024-02-04T05:20:00;16.35;;;5.38;;
69401;SDS011;56589;51.992;5.924;2024-02-04T05:22:26;10.93;;;5.13;;
69401;SDS011;56589;51.992;5.924;2024-02-04T05:24:51;10.18;;;4.70;;
69401;SDS011;56589;51.992;5.924;2024-02-04T05:27:17;13.77;;;5.40;;
69401;SDS011;56589;51.992;5.924;2024-02-04T05:29:43;14.75;;;5.35;;
69401;SDS011;56589;51.992;5.924;2024-02-04T05:32:11;8.25;;;4.40;;
69401;SDS011;56589;51.992;5.924;2024-02-04T05:34:37;14.15;;;5.10;;
69401;SDS011;56589;51.992;5.924;2024-02-04T05:37:03;13.68;;;5.43;;
69401;SDS011;56589;51.992;5.924;2024-02-04T05:39:29;12.75;;;4.85;;
69401;SDS011;56589;51.992;5.924;2024-02-04T05:41:54;11.98;;;5.00;;
69401;SDS011;56589;51.992;5.924;2024-02-04T05:44:20;13.48;;;5.32;;
69401;SDS011;56589;51.992;5.924;2024-02-04T05:46:46;12.90;;;4.60;;
69401;SDS011;56589;51.992;5.924;2024-02-04T05:49:14;11.20;;;5.22;;
69401;SDS011;56589;51.992;5.924;2024-02-04T05:51:41;17.23;;;5.22;;
69401;SDS011;56589;51.992;5.924;2024-02-04T05:54:07;8.85;;;4.43;;
69401;SDS011;56589;51.992;5.924;2024-02-04T05:56:33;13.43;;;5.60;;
69401;SDS011;56589;51.992;5.924;2024-02-04T05:58:59;12.60;;;5.55;;
69401;SDS011;56589;51.992;5.924;2024-02-04T06:01:25;10.27;;;5.30;;
69401;SDS011;56589;51.992;5.924;2024-02-04T06:03:51;11.77;;;5.38;;
69401;SDS011;56589;51.992;5.924;2024-02-04T06:06:19;11.32;;;5.45;;
69401;SDS011;56589;51.992;5.924;2024-02-04T06:08:45;15.45;;;6.05;;
69401;SDS011;56589;51.992;5.924;2024-02-04T06:11:11;12.35;;;5.82;;
69401;SDS011;56589;51.992;5.924;2024-02-04T06:13:39;10.68;;;5.35;;
69401;SDS011;56589;51.992;5.924;2024-02-04T06:16:06;14.02;;;5.93;;
69401;SDS011;56589;51.992;5.924;2024-02-04T06:18:32;10.95;;;5.70;;
69401;SDS011;56589;51.992;5.924;2024-02-04T06:20:58;11.93;;;5.60;;
69401;SDS011;56589;51.992;5.924;2024-02-04T06:23:26;13.18;;;5.32;;
69401;SDS011;56589;51.992;5.924;2024-02-04T06:25:52;9.73;;;5.60;;
69401;SDS011;56589;51.992;5.924;2024-02-04T06:28:18;11.27;;;5.40;;
69401;SDS011;56589;51.992;5.924;2024-02-04T06:30:43;13.35;;;5.07;;
69401;SDS011;56589;51.992;5.924;2024-02-04T06:33:09;16.13;;;5.65;;
69401;SDS011;56589;51.992;5.924;2024-02-04T06:35:35;16.63;;;6.78;;
69401;SDS011;56589;51.992;5.924;2024-02-04T06:38:01;13.88;;;5.72;;
69401;SDS011;56589;51.992;5.924;2024-02-04T06:40:29;13.00;;;5.53;;
69401;SDS011;56589;51.992;5.924;2024-02-04T06:42:55;13.50;;;5.55;;
69401;SDS011;56589;51.992;5.924;2024-02-04T06:45:21;15.05;;;6.10;;
69401;SDS011;56589;51.992;5.924;2024-02-04T06:47:46;10.23;;;5.60;;
69401;SDS011;56589;51.992;5.924;2024-02-04T06:50:12;10.20;;;6.13;;
69401;SDS011;56589;51.992;5.924;2024-02-04T06:52:38;16.00;;;7.25;;
69401;SDS011;56589;51.992;5.924;2024-02-04T06:55:04;14.77;;;6.90;;
69401;SDS011;56589;51.992;5.924;2024-02-04T06:57:34;15.15;;;8.18;;
69401;SDS011;56589;51.992;5.924;2024-02-04T07:00:00;17.45;;;8.77;;
69401;SDS011;56589;51.992;5.924;2024-02-04T07:02:26;17.85;;;9.25;;
69401;SDS011;56589;51.992;5.924;2024-02-04T07:04:52;17.92;;;10.05;;
69401;SDS011;56589;51.992;5.924;2024-02-04T07:07:18;17.02;;;11.25;;
69401;SDS011;56589;51.992;5.924;2024-02-04T07:09:44;19.83;;;10.75;;
69401;SDS011;56589;51.992;5.924;2024-02-04T07:12:10;18.60;;;11.25;;
69401;SDS011;56589;51.992;5.924;2024-02-04T07:14:38;17.30;;;10.82;;
69401;SDS011;56589;51.992;5.924;2024-02-04T07:17:04;25.17;;;11.65;;
69401;SDS011;56589;51.992;5.924;2024-02-04T07:19:29;19.17;;;11.52;;
69401;SDS011;56589;51.992;5.924;2024-02-04T07:21:55;19.55;;;11.80;;
69401;SDS011;56589;51.992;5.924;2024-02-04T07:24:21;22.17;;;11.63;;
69401;SDS011;56589;51.992;5.924;2024-02-04T07:26:47;19.35;;;11.35;;
69401;SDS011;56589;51.992;5.924;2024-02-04T07:29:12;20.25;;;11.50;;
69401;SDS011;56589;51.992;5.924;2024-02-04T07:31:41;18.73;;;12.13;;
69401;SDS011;56589;51.992;5.924;2024-02-04T07:34:07;22.73;;;11.93;;
69401;SDS011;56589;51.992;5.924;2024-02-04T07:36:33;18.40;;;11.27;;
69401;SDS011;56589;51.992;5.924;2024-02-04T07:38:59;21.52;;;10.52;;
69401;SDS011;56589;51.992;5.924;2024-02-04T07:41:25;18.90;;;9.90;;
69401;SDS011;56589;51.992;5.924;2024-02-04T07:43:51;20.63;;;9.77;;
69401;SDS011;56589;51.992;5.924;2024-02-04T07:46:17;17.08;;;9.57;;
69401;SDS011;56589;51.992;5.924;2024-02-04T07:48:45;21.35;;;10.90;;
69401;SDS011;56589;51.992;5.924;2024-02-04T07:51:11;18.90;;;9.85;;
69401;SDS011;56589;51.992;5.924;2024-02-04T07:53:37;20.60;;;9.77;;
69401;SDS011;56589;51.992;5.924;2024-02-04T07:56:03;22.33;;;9.52;;
69401;SDS011;56589;51.992;5.924;2024-02-04T07:58:29;19.80;;;9.48;;
69401;SDS011;56589;51.992;5.924;2024-02-04T08:00:55;17.55;;;8.45;;
69401;SDS011;56589;51.992;5.924;2024-02-04T08:03:21;26.20;;;8.93;;
69401;SDS011;56589;51.992;5.924;2024-02-04T08:05:49;14.02;;;8.05;;
69401;SDS011;56589;51.992;5.924;2024-02-04T08:08:15;17.67;;;7.68;;
69401;SDS011;56589;51.992;5.924;2024-02-04T08:10:41;16.38;;;7.50;;
69401;SDS011;56589;51.992;5.924;2024-02-04T08:13:07;21.30;;;7.93;;
69401;SDS011;56589;51.992;5.924;2024-02-04T08:15:33;23.83;;;7.15;;
69401;SDS011;56589;51.992;5.924;2024-02-04T08:17:59;15.88;;;6.15;;
69401;SDS011;56589;51.992;5.924;2024-02-04T08:20:25;12.05;;;5.50;;
69401;SDS011;56589;51.992;5.924;2024-02-04T08:22:53;9.50;;;4.93;;
69401;SDS011;56589;51.992;5.924;2024-02-04T08:25:19;9.45;;;4.90;;
69401;SDS011;56589;51.992;5.924;2024-02-04T08:27:45;8.18;;;4.15;;
69401;SDS011;56589;51.992;5.924;2024-02-04T08:30:12;15.40;;;4.68;;
69401;SDS011;56589;51.992;5.924;2024-02-04T08:32:38;17.65;;;5.03;;
69401;SDS011;56589;51.992;5.924;2024-02-04T08:35:04;11.75;;;4.30;;
69401;SDS011;56589;51.992;5.924;2024-02-04T08:37:31;12.13;;;4.25;;
69401;SDS011;56589;51.992;5.924;2024-02-04T08:40:00;12.32;;;5.20;;
69401;SDS011;56589;51.992;5.924;2024-02-04T08:42:26;11.80;;;4.90;;
69401;SDS011;56589;51.992;5.924;2024-02-04T08:44:52;9.77;;;4.60;;
69401;SDS011;56589;51.992;5.924;2024-02-04T08:47:17;12.55;;;4.88;;
69401;SDS011;56589;51.992;5.924;2024-02-04T08:49:43;17.13;;;5.07;;
69401;SDS011;56589;51.992;5.924;2024-02-04T08:52:09;11.88;;;5.47;;
69401;SDS011;56589;51.992;5.924;2024-02-04T08:54:35;13.70;;;5.93;;
69401;SDS011;56589;51.992;5.924;2024-02-04T08:57:03;10.23;;;4.78;;
69401;SDS011;56589;51.992;5.924;2024-02-04T08:59:29;11.50;;;5.15;;
69401;SDS011;56589;51.992;5.924;2024-02-04T09:01:55;13.50;;;4.38;;
69401;SDS011;56589;51.992;5.924;2024-02-04T09:04:21;9.30;;;4.30;;
69401;SDS011;56589;51.992;5.924;2024-02-04T09:06:47;7.95;;;4.25;;
69401;SDS011;56589;51.992;5.924;2024-02-04T09:09:12;10.30;;;4.05;;
69401;SDS011;56589;51.992;5.924;2024-02-04T09:11:38;8.98;;;3.85;;
69401;SDS011;56589;51.992;5.924;2024-02-04T09:14:07;11.80;;;4.22;;
69401;SDS011;56589;51.992;5.924;2024-02-04T09:16:32;15.35;;;4.03;;
69401;SDS011;56589;51.992;5.924;2024-02-04T09:18:58;10.20;;;3.83;;
69401;SDS011;56589;51.992;5.924;2024-02-04T09:21:24;11.02;;;3.70;;
69401;SDS011;56589;51.992;5.924;2024-02-04T09:23:50;9.20;;;3.85;;
69401;SDS011;56589;51.992;5.924;2024-02-04T09:26:15;10.30;;;4.00;;
69401;SDS011;56589;51.992;5.924;2024-02-04T09:28:41;8.60;;;4.53;;
69401;SDS011;56589;51.992;5.924;2024-02-04T09:31:10;9.73;;;4.90;;
69401;SDS011;56589;51.992;5.924;2024-02-04T09:33:36;11.52;;;5.25;;
69401;SDS011;56589;51.992;5.924;2024-02-04T09:36:04;10.45;;;5.03;;
69401;SDS011;56589;51.992;5.924;2024-02-04T09:38:31;10.40;;;5.18;;
69401;SDS011;56589;51.992;5.924;2024-02-04T09:40:56;8.77;;;5.28;;
69401;SDS011;56589;51.992;5.924;2024-02-04T09:43:22;7.00;;;5.10;;
69401;SDS011;56589;51.992;5.924;2024-02-04T09:45:49;10.35;;;4.97;;
69401;SDS011;56589;51.992;5.924;2024-02-04T09:48:19;11.15;;;4.93;;
69401;SDS011;56589;51.992;5.924;2024-02-04T09:50:46;7.25;;;4.80;;
69401;SDS011;56589;51.992;5.924;2024-02-04T09:53:14;8.55;;;3.90;;
69401;SDS011;56589;51.992;5.924;2024-02-04T09:55:46;10.05;;;4.25;;
69401;SDS011;56589;51.992;5.924;2024-02-04T09:58:15;11.65;;;4.30;;
69401;SDS011;56589;51.992;5.924;2024-02-04T10:00:41;10.35;;;4.20;;
69401;SDS011;56589;51.992;5.924;2024-02-04T10:03:10;8.60;;;3.58;;
69401;SDS011;56589;51.992;5.924;2024-02-04T10:05:39;7.28;;;3.83;;
69401;SDS011;56589;51.992;5.924;2024-02-04T10:08:05;9.73;;;3.90;;
69401;SDS011;56589;51.992;5.924;2024-02-04T10:10:31;7.85;;;3.50;;
69401;SDS011;56589;51.992;5.924;2024-02-04T10:12:57;6.85;;;3.85;;
69401;SDS011;56589;51.992;5.924;2024-02-04T10:15:23;6.50;;;3.10;;
69401;SDS011;56589;51.992;5.924;2024-02-04T10:17:48;5.18;;;2.60;;
69401;SDS011;56589;51.992;5.924;2024-02-04T10:20:15;5.20;;;3.17;;
69401;SDS011;56589;51.992;5.924;2024-02-04T10:22:43;7.95;;;3.00;;
69401;SDS011;56589;51.992;5.924;2024-02-04T10:25:10;9.35;;;3.97;;
69401;SDS011;56589;51.992;5.924;2024-02-04T10:27:36;7.43;;;2.55;;
69401;SDS011;56589;51.992;5.924;2024-02-04T10:30:02;5.60;;;2.20;;
69401;SDS011;56589;51.992;5.924;2024-02-04T10:32:29;10.15;;;2.60;;
69401;SDS011;56589;51.992;5.924;2024-02-04T10:34:57;10.45;;;3.10;;
69401;SDS011;56589;51.992;5.924;2024-02-04T10:37:23;7.40;;;2.20;;
69401;SDS011;56589;51.992;5.924;2024-02-04T10:39:51;6.57;;;2.00;;
69401;SDS011;56589;51.992;5.924;2024-02-04T10:42:17;9.93;;;3.28;;
69401;SDS011;56589;51.992;5.924;2024-02-04T10:44:49;6.18;;;2.00;;
69401;SDS011;56589;51.992;5.924;2024-02-04T10:47:24;4.88;;;1.95;;
69401;SDS011;56589;51.992;5.924;2024-02-04T10:49:55;7.82;;;2.03;;
69401;SDS011;56589;51.992;5.924;2024-02-04T10:52:26;7.30;;;2.00;;
69401;SDS011;56589;51.992;5.924;2024-02-04T10:54:55;11.38;;;2.05;;
69401;SDS011;56589;51.992;5.924;2024-02-04T10:57:22;7.13;;;2.00;;
69401;SDS011;56589;51.992;5.924;2024-02-04T10:59:48;5.90;;;1.70;;
69401;SDS011;56589;51.992;5.924;2024-02-04T11:02:14;4.88;;;1.77;;
69401;SDS011;56589;51.992;5.924;2024-02-04T11:04:41;8.23;;;1.52;;
69401;SDS011;56589;51.992;5.924;2024-02-04T11:07:08;5.03;;;1.40;;
69401;SDS011;56589;51.992;5.924;2024-02-04T11:09:37;4.45;;;1.80;;
69401;SDS011;56589;51.992;5.924;2024-02-04T11:12:08;2.15;;;1.10;;
69401;SDS011;56589;51.992;5.924;2024-02-04T11:14:40;3.72;;;1.05;;
69401;SDS011;56589;51.992;5.924;2024-02-04T11:17:19;2.45;;;1.05;;
69401;SDS011;56589;51.992;5.924;2024-02-04T11:20:16;4.75;;;1.02;;
69401;SDS011;56589;51.992;5.924;2024-02-04T11:23:13;4.95;;;0.95;;
69401;SDS011;56589;51.992;5.924;2024-02-04T11:25:57;4.47;;;1.00;;
69401;SDS011;56589;51.992;5.924;2024-02-04T11:28:28;1.63;;;0.77;;
69401;SDS011;56589;51.992;5.924;2024-02-04T11:30:54;4.50;;;0.93;;
69401;SDS011;56589;51.992;5.924;2024-02-04T11:33:20;4.47;;;1.00;;
69401;SDS011;56589;51.992;5.924;2024-02-04T11:35:57;2.03;;;0.70;;
69401;SDS011;56589;51.992;5.924;2024-02-04T11:38:29;4.78;;;0.85;;
69401;SDS011;56589;51.992;5.924;2024-02-04T11:40:55;0.75;;;0.65;;
69401;SDS011;56589;51.992;5.924;2024-02-04T11:43:22;2.80;;;0.60;;
69401;SDS011;56589;51.992;5.924;2024-02-04T11:45:52;1.70;;;0.70;;
69401;SDS011;56589;51.992;5.924;2024-02-04T11:48:18;3.45;;;1.40;;
69401;SDS011;56589;51.992;5.924;2024-02-04T11:50:51;0.90;;;0.60;;
69401;SDS011;56589;51.992;5.924;2024-02-04T11:53:18;1.83;;;0.50;;
69401;SDS011;56589;51.992;5.924;2024-02-04T11:55:44;1.90;;;0.50;;
69401;SDS011;56589;51.992;5.924;2024-02-04T11:58:10;0.50;;;0.35;;
69401;SDS011;56589;51.992;5.924;2024-02-04T12:00:37;0.77;;;0.60;;
69401;SDS011;56589;51.992;5.924;2024-02-04T12:03:09;1.38;;;0.50;;
69401;SDS011;56589;51.992;5.924;2024-02-04T12:05:35;2.08;;;0.52;;
69401;SDS011;56589;51.992;5.924;2024-02-04T12:08:03;0.70;;;0.65;;
69401;SDS011;56589;51.992;5.924;2024-02-04T12:10:31;1.58;;;1.00;;
69401;SDS011;56589;51.992;5.924;2024-02-04T12:12:59;3.97;;;0.95;;
69401;SDS011;56589;51.992;5.924;2024-02-04T12:15:29;3.33;;;1.48;;
69401;SDS011;56589;51.992;5.924;2024-02-04T12:17:55;1.42;;;1.02;;
69401;SDS011;56589;51.992;5.924;2024-02-04T12:20:23;1.95;;;1.50;;
69401;SDS011;56589;51.992;5.924;2024-02-04T12:22:49;2.88;;;1.60;;
69401;SDS011;56589;51.992;5.924;2024-02-04T12:25:15;3.92;;;1.95;;
69401;SDS011;56589;51.992;5.924;2024-02-04T12:27:42;4.57;;;2.00;;
69401;SDS011;56589;51.992;5.924;2024-02-04T12:30:08;4.78;;;2.15;;
69401;SDS011;56589;51.992;5.924;2024-02-04T12:32:35;4.65;;;2.60;;
69401;SDS011;56589;51.992;5.924;2024-02-04T12:35:01;5.57;;;2.83;;
69401;SDS011;56589;51.992;5.924;2024-02-04T12:37:29;8.23;;;3.15;;
69401;SDS011;56589;51.992;5.924;2024-02-04T12:39:55;6.97;;;3.00;;
69401;SDS011;56589;51.992;5.924;2024-02-04T12:42:21;9.18;;;3.10;;
69401;SDS011;56589;51.992;5.924;2024-02-04T12:44:46;6.90;;;2.70;;
69401;SDS011;56589;51.992;5.924;2024-02-04T12:47:13;9.23;;;3.40;;
69401;SDS011;56589;51.992;5.924;2024-02-04T12:49:43;9.07;;;2.88;;
69401;SDS011;56589;51.992;5.924;2024-02-04T12:52:09;5.57;;;3.05;;
69401;SDS011;56589;51.992;5.924;2024-02-04T12:54:44;6.43;;;3.05;;
69401;SDS011;56589;51.992;5.924;2024-02-04T12:57:10;11.60;;;3.90;;
69401;SDS011;56589;51.992;5.924;2024-02-04T12:59:47;8.68;;;3.20;;
69401;SDS011;56589;51.992;5.924;2024-02-04T13:02:13;13.38;;;3.60;;
69401;SDS011;56589;51.992;5.924;2024-02-04T13:04:40;7.63;;;2.90;;
69401;SDS011;56589;51.992;5.924;2024-02-04T13:07:07;9.65;;;3.58;;
69401;SDS011;56589;51.992;5.924;2024-02-04T13:09:34;7.63;;;3.20;;
69401;SDS011;56589;51.992;5.924;2024-02-04T13:12:07;12.75;;;3.70;;
69401;SDS011;56589;51.992;5.924;2024-02-04T13:14:34;10.70;;;3.80;;
69401;SDS011;56589;51.992;5.924;2024-02-04T13:17:00;10.93;;;3.47;;
69401;SDS011;56589;51.992;5.924;2024-02-04T13:19:31;8.68;;;3.45;;
69401;SDS011;56589;51.992;5.924;2024-02-04T13:21:58;12.90;;;3.40;;
69401;SDS011;56589;51.992;5.924;2024-02-04T13:24:24;11.57;;;3.67;;
69401;SDS011;56589;51.992;5.924;2024-02-04T13:26:49;11.07;;;2.83;;
69401;SDS011;56589;51.992;5.924;2024-02-04T13:29:18;9.30;;;2.80;;
69401;SDS011;56589;51.992;5.924;2024-02-04T13:31:43;7.47;;;2.78;;
69401;SDS011;56589;51.992;5.924;2024-02-04T13:34:09;9.95;;;2.85;;
69401;SDS011;56589;51.992;5.924;2024-02-04T13:36:35;9.68;;;2.80;;
69401;SDS011;56589;51.992;5.924;2024-02-04T13:39:01;8.07;;;2.67;;
69401;SDS011;56589;51.992;5.924;2024-02-04T13:41:27;7.32;;;3.10;;
69401;SDS011;56589;51.992;5.924;2024-02-04T13:43:52;5.90;;;2.35;;
69401;SDS011;56589;51.992;5.924;2024-02-04T13:46:21;5.82;;;2.30;;
69401;SDS011;56589;51.992;5.924;2024-02-04T13:48:46;10.63;;;3.25;;
69401;SDS011;56589;51.992;5.924;2024-02-04T13:51:12;5.90;;;2.83;;
69401;SDS011;56589;51.992;5.924;2024-02-04T13:53:38;14.05;;;3.97;;
69401;SDS011;56589;51.992;5.924;2024-02-04T13:56:04;14.25;;;4.00;;
69401;SDS011;56589;51.992;5.924;2024-02-04T13:58:30;10.68;;;3.42;;
69401;SDS011;56589;51.992;5.924;2024-02-04T14:00:56;10.80;;;3.88;;
69401;SDS011;56589;51.992;5.924;2024-02-04T14:03:24;12.95;;;3.97;;
69401;SDS011;56589;51.992;5.924;2024-02-04T14:05:50;10.52;;;3.60;;
69401;SDS011;56589;51.992;5.924;2024-02-04T14:08:16;11.45;;;3.75;;
69401;SDS011;56589;51.992;5.924;2024-02-04T14:10:42;14.50;;;3.58;;
69401;SDS011;56589;51.992;5.924;2024-02-04T14:13:08;13.80;;;3.30;;
69401;SDS011;56589;51.992;5.924;2024-02-04T14:15:33;10.52;;;4.05;;
69401;SDS011;56589;51.992;5.924;2024-02-04T14:17:59;5.75;;;3.25;;
69401;SDS011;56589;51.992;5.924;2024-02-04T14:20:28;12.13;;;3.65;;
69401;SDS011;56589;51.992;5.924;2024-02-04T14:22:54;9.68;;;3.42;;
69401;SDS011;56589;51.992;5.924;2024-02-04T14:25:20;9.43;;;3.42;;
69401;SDS011;56589;51.992;5.924;2024-02-04T14:27:46;18.67;;;3.85;;
69401;SDS011;56589;51.992;5.924;2024-02-04T14:30:12;10.73;;;3.58;;
69401;SDS011;56589;51.992;5.924;2024-02-04T14:32:38;11.35;;;3.40;;
69401;SDS011;56589;51.992;5.924;2024-02-04T14:35:04;14.02;;;3.95;;
69401;SDS011;56589;51.992;5.924;2024-02-04T14:37:33;10.77;;;3.38;;